WetterOnline ( https://www.wetteronline.de )

Wetter aktuell Kempten

Aktuelles Wetter: Kempten (705m)

6-stündlich | Neueste Meldungen
Ortszeit Temperatur Wetter
Di, 22.06. 14:00 19.7° C bewölkt
Di, 22.06. 8:00 17.8° C fast wolkenlos
Di, 22.06. 2:00 15.2° C Sprühregen
Mo, 21.06. 20:00 23.7° C wolkig
Mo, 21.06. 14:00 24.2° C fast wolkenlos
Mo, 21.06. 8:00 18.4° C leicht bewölkt
Mo, 21.06. 2:00 17.0° C wolkig
So, 20.06. 20:00 21.1° C leichter Regen
Ortszeit Temperatur Wetter
Di, 22.06. 19:00 20.4° C bewölkt
Di, 22.06. 18:50 20.4° C bewölkt
Di, 22.06. 18:40 20.4° C bedeckt
Di, 22.06. 18:30 20.8° C bedeckt
Di, 22.06. 18:20 20.8° C bedeckt
Di, 22.06. 18:10 20.7° C bedeckt
Di, 22.06. 18:00 20.7° C bedeckt
Di, 22.06. 17:30 21.6° C bewölkt
Di, 22.06. 17:00 20.9° C bewölkt
Di, 22.06. 16:30 20.4° C bewölkt
Di, 22.06. 16:00 21.1° C bedeckt
Ortszeit Relative Feuchte Sichtweite
Di, 22.06. 14:00 72% 35 km
Di, 22.06. 8:00 83% >70 km
Di, 22.06. 2:00 96% 30 km
Mo, 21.06. 20:00 56% 40 km
Mo, 21.06. 14:00 45% 65 km
Mo, 21.06. 8:00 76% 50 km
Mo, 21.06. 2:00 80% 50 km
So, 20.06. 20:00 82% 26 km
Ortszeit Relative Feuchte Sichtweite
Di, 22.06. 19:00 73% 55 km
Di, 22.06. 18:50 73% -
Di, 22.06. 18:40 73% -
Di, 22.06. 18:30 71% 55 km
Di, 22.06. 18:20 71% -
Di, 22.06. 18:10 72% -
Di, 22.06. 18:00 70% 60 km
Di, 22.06. 17:30 67% 45 km
Di, 22.06. 17:00 68% 45 km
Di, 22.06. 16:30 69% 45 km
Di, 22.06. 16:00 67% 50 km
Ortszeit Niederschlagsmenge Niederschlagsart
Di, 22.06. 14:00 0.0 l/m2 in 6 Std. -
Di, 22.06. 8:00 18 l/m2 in 12 Std. Regen
Di, 22.06. 2:00 18 l/m2 in 6 Std. Regen
Mo, 21.06. 20:00 0.0 l/m2 in 12 Std. -
Mo, 21.06. 14:00 0.0 l/m2 in 6 Std. -
Mo, 21.06. 8:00 0.1 l/m2 in 12 Std. Regen
Mo, 21.06. 2:00 0.1 l/m2 in 6 Std. Regen
So, 20.06. 20:00 2 l/m2 in 12 Std. Regen
Ortszeit Niederschlagsmenge Niederschlagsart
Di, 22.06. 19:00 0.0 l/m2 in 1 Std. -
Di, 22.06. 18:50 keine Meldung -
Di, 22.06. 18:40 keine Meldung -
Di, 22.06. 18:30 0.0 l/m2 in 1 Std. -
Di, 22.06. 18:20 keine Meldung -
Di, 22.06. 18:10 keine Meldung -
Di, 22.06. 18:00 0.0 l/m2 in 1 Std. -
Di, 22.06. 17:30 0.0 l/m2 in 1 Std. -
Di, 22.06. 17:00 0.0 l/m2 in 1 Std. -
Di, 22.06. 16:30 0.0 l/m2 in 1 Std. -
Di, 22.06. 16:00 0.0 l/m2 in 1 Std. -
Ortszeit Stärke Spitze Richtung
km/h Bft. km/h Grad Sektor
Di, 22.06. 14:00 15 3 30 250° W
Di, 22.06. 8:00 0 0 14 - -
Di, 22.06. 2:00 7 2 50 130° SO
Mo, 21.06. 20:00 7 2 22 40° NO
Mo, 21.06. 14:00 7 2 22 30° NO
Mo, 21.06. 8:00 4 1 14 140° SO
Mo, 21.06. 2:00 7 2 36 40° NO
So, 20.06. 20:00 4 1 29 150° SO
Ortszeit Stärke Spitze Richtung
km/h Bft. km/h Grad Sektor
Di, 22.06. 19:00 9 2 20 310° NW
Di, 22.06. 18:50 9 2 - 310° NW
Di, 22.06. 18:40 7 2 - 310° NW
Di, 22.06. 18:30 9 2 20 300° NW
Di, 22.06. 18:20 9 2 - 300° NW
Di, 22.06. 18:10 11 2 - 300° NW
Di, 22.06. 18:00 7 2 18 360° N
Di, 22.06. 17:30 9 2 19 320° NW
Di, 22.06. 17:00 7 2 14 280° W
Di, 22.06. 16:30 9 2 15 280° W
Di, 22.06. 16:00 6 1 20 280° W
Ortszeit Untergrenze Bedeckung Gattung
total tief tief mittel hoch
Di, 22.06. 14:00 600 m 7/8 7/8 - - -
Di, 22.06. 8:00 2700 m 1/8 1/8 - - -
Di, 22.06. 2:00 2100 m 8/8 8/8 - - -
Mo, 21.06. 20:00 1500 m 7/8 4/8 - - -
Mo, 21.06. 14:00 1380 m 1/8 1/8 - - -
Mo, 21.06. 8:00 3600 m 4/8 4/8 - - -
Mo, 21.06. 2:00 2100 m 7/8 5/8 - - -
So, 20.06. 20:00 2100 m 7/8 1/8 - - -
Ortszeit Bedeckungsgrad in Achtel und Wolkenuntergrenze
Di, 22.06. 19:00 4(660m) 6(1410m) 7(2400m)
Di, 22.06. 18:50 4(660m) 6(1410m) 7(2400m)
Di, 22.06. 18:40 4(600m) 8(1410m) 8(2400m)
Di, 22.06. 18:30 5(660m) 7(900m) 8(1410m)
Di, 22.06. 18:20 5(660m) 7(900m) 8(1410m)
Di, 22.06. 18:10 5(690m) 7(960m) 8(1440m)
Di, 22.06. 18:00 6(690m) 7(1080m) 8(1410m)
Di, 22.06. 17:30 6(780m) 7(1050m) 8(3000m)
Di, 22.06. 17:00 7(750m) 7(900m) 7(1140m)
Di, 22.06. 16:30 5(780m) 7(1410m) 7(8400m)
Di, 22.06. 16:00 7(720m) 7(1140m) 8(1440m)
Ortszeit Luftdruck NN (hPa) Tendenz (hPa in 3 Std.)
Di, 22.06. 14:00 1011 + 1,5
Di, 22.06. 8:00 1010 + 0,1
Di, 22.06. 2:00 1012 + 0,6
Mo, 21.06. 20:00 1005 - 0,7
Mo, 21.06. 14:00 1007 - 0,5
Mo, 21.06. 8:00 1009 - 0,3
Mo, 21.06. 2:00 1007 - 1,7
So, 20.06. 20:00 1005 - 1,6
Ortszeit Luftdruck NN (hPa) Tendenz (hPa in 3 Std.)
Di, 22.06. 19:00 1012 + 0,8
Di, 22.06. 18:50 1012 keine Meldung
Di, 22.06. 18:40 1012 keine Meldung
Di, 22.06. 18:30 1012 + 0,8
Di, 22.06. 18:20 1012 keine Meldung
Di, 22.06. 18:10 1012 keine Meldung
Di, 22.06. 18:00 1012 + 0,7
Di, 22.06. 17:30 1011 + 1,0
Di, 22.06. 17:00 1011 + 1,0
Di, 22.06. 16:30 1011 + 1,0
Di, 22.06. 16:00 1011 + 1,1
Ortszeit Schneehöhe (cm)
Di, 22.06. 14:00 -
Di, 22.06. 8:00 -
Di, 22.06. 2:00 -
Mo, 21.06. 20:00 -
Mo, 21.06. 14:00 -
Mo, 21.06. 8:00 -
Mo, 21.06. 2:00 -
So, 20.06. 20:00 -
Ortszeit Schneehöhe (cm)
Di, 22.06. 19:00 -
Di, 22.06. 18:50 -
Di, 22.06. 18:40 -
Di, 22.06. 18:30 -
Di, 22.06. 18:20 -
Di, 22.06. 18:10 -
Di, 22.06. 18:00 -
Di, 22.06. 17:30 -
Di, 22.06. 17:00 -
Di, 22.06. 16:30 -
Di, 22.06. 16:00 -
Link zu dieser Seite / Seite empfehlen

Das Wetter in ...